Time;durP1;ratioP1;P1;durP2;ratioP2;P2;SDS_P1;SDS_P2;PMS_P1;PMS_P2;Temp;Humidity;BMP_temperature;BMP_pressure;BME280_temperature;BME280_humidity;BME280_pressure;Samples;Min_cycle;Max_cycle;Signal;HPM_P1;HPM_P2
2023/08/14 00:02:22;;;;;;;18.23;13.63;;;;;;;19.07;100.00;101502.56;5238884;28;20106;-88
2023/08/14 00:04:53;;;;;;;15.32;11.65;;;;;;;19.46;100.00;101498.41;5246453;28;20044;-88
2023/08/14 00:07:24;;;;;;;17.00;10.93;;;;;;;19.08;100.00;101498.06;5237418;28;20029;-88
2023/08/14 00:09:56;;;;;;;17.90;12.27;;;;;;;19.07;100.00;101493.75;5256572;28;20499;-84
2023/08/14 00:12:27;;;;;;;20.90;12.43;;;;;;;19.02;100.00;101496.81;5256157;28;20020;-78
2023/08/14 00:14:58;;;;;;;17.23;11.53;;;;;;;19.03;100.00;101487.84;5247487;28;20064;-85
2023/08/14 00:17:29;;;;;;;16.00;11.23;;;;;;;18.93;100.00;101490.47;5217735;28;20041;-88
2023/08/14 00:20:01;;;;;;;14.10;9.83;;;;;;;18.97;100.00;101499.84;5227915;28;20021;-84
2023/08/14 00:22:32;;;;;;;14.90;9.70;;;;;;;18.96;100.00;101492.00;5256552;28;20012;-85
2023/08/14 00:25:04;;;;;;;15.30;9.60;;;;;;;18.81;100.00;101488.88;5255817;28;20048;-81
2023/08/14 00:27:35;;;;;;;11.47;8.10;;;;;;;18.85;100.00;101491.13;5256588;28;20112;-88
2023/08/14 00:30:07;;;;;;;11.90;9.30;;;;;;;18.65;100.00;101489.31;5255096;28;20115;-85
2023/08/14 00:32:38;;;;;;;15.73;8.53;;;;;;;18.64;100.00;101485.00;5256071;28;20107;-72
2023/08/14 00:35:09;;;;;;;12.47;7.97;;;;;;;18.93;100.00;101479.00;5255836;28;20040;-81
2023/08/14 00:37:48;;;;;;;13.37;7.90;;;;;;;19.05;100.00;101487.72;5238051;28;20064;-83
2023/08/14 00:40:19;;;;;;;13.23;7.83;;;;;;;19.17;100.00;101492.00;5221052;28;20029;-88
2023/08/14 00:42:50;;;;;;;11.97;7.90;;;;;;;19.07;100.00;101491.94;5217809;28;20048;-84
2023/08/14 00:45:21;;;;;;;13.43;7.90;;;;;;;18.66;100.00;101483.06;5236189;28;20025;-79
2023/08/14 00:47:54;;;;;;;12.90;8.13;;;;;;;18.81;100.00;101489.72;5247931;28;20100;-82
2023/08/14 00:50:26;;;;;;;11.57;7.10;;;;;;;18.99;100.00;101486.44;5231885;28;20079;-81
2023/08/14 00:53:00;;;;;;;11.23;7.07;;;;;;;18.79;100.00;101486.34;5237852;28;20033;-82
2023/08/14 00:55:32;;;;;;;10.07;6.50;;;;;;;19.09;100.00;101479.34;5246382;28;20028;-79
2023/08/14 00:58:03;;;;;;;11.87;6.40;;;;;;;18.99;100.00;101483.78;5217407;28;20088;-81
2023/08/14 01:00:35;;;;;;;10.27;6.30;;;;;;;18.96;100.00;101478.75;5240586;28;20029;-85
2023/08/14 01:03:06;;;;;;;9.03;5.87;;;;;;;18.99;100.00;101475.81;5251775;22;20407;-83
2023/08/14 01:05:38;;;;;;;13.60;6.50;;;;;;;18.82;100.00;101475.47;5221775;28;20045;-72
2023/08/14 01:08:09;;;;;;;11.13;6.63;;;;;;;18.76;100.00;101473.34;5244138;28;20044;-85
2023/08/14 01:11:23;;;;;;;10.80;6.70;;;;;;;19.11;100.00;101479.28;5255740;28;20104;-88
2023/08/14 01:13:59;;;;;;;10.80;7.03;;;;;;;18.72;100.00;101475.41;5255559;28;20119;-87
2023/08/14 01:16:35;;;;;;;11.60;7.00;;;;;;;18.87;100.00;101464.44;5236498;28;20440;-73
2023/08/14 01:19:15;;;;;;;9.93;5.67;;;;;;;18.55;100.00;101468.91;5220757;28;20045;-80
2023/08/14 01:22:00;;;;;;;12.00;6.83;;;;;;;18.85;100.00;101464.59;5234878;28;20033;-84
2023/08/14 01:24:44;;;;;;;9.05;6.28;;;;;;;18.80;100.00;101461.47;5250247;28;20061;-85
2023/08/14 01:27:16;;;;;;;14.70;6.82;;;;;;;18.60;100.00;101458.72;5208692;28;20021;-88
2023/08/14 01:29:58;;;;;;;11.27;6.03;;;;;;;18.72;100.00;101453.34;5254423;28;20079;-86
2023/08/14 01:32:29;;;;;;;10.77;5.70;;;;;;;18.45;100.00;101454.72;5255425;28;20017;-86
2023/08/14 01:35:00;;;;;;;8.13;5.50;;;;;;;18.43;100.00;101446.06;5242627;28;20040;-78
2023/08/14 01:37:40;;;;;;;12.97;6.23;;;;;;;18.56;100.00;101452.00;5234412;28;20022;-81
2023/08/14 01:40:23;;;;;;;9.57;5.63;;;;;;;18.81;100.00;101449.91;5234119;28;20029;-83
2023/08/14 01:42:59;;;;;;;6.63;4.73;;;;;;;18.43;100.00;101440.75;5234331;28;20032;-86
2023/08/14 01:45:34;;;;;;;11.23;5.50;;;;;;;18.41;100.00;101440.03;5235187;28;20028;-86
2023/08/14 01:48:11;;;;;;;8.57;5.40;;;;;;;18.58;100.00;101441.25;5254445;28;20029;-78
2023/08/14 01:50:43;;;;;;;9.50;5.20;;;;;;;18.34;100.00;101429.94;5255151;28;20028;-82
2023/08/14 01:53:16;;;;;;;8.00;5.03;;;;;;;18.32;100.00;101421.28;5233629;28;20025;-87
2023/08/14 01:55:48;;;;;;;10.40;4.93;;;;;;;18.21;100.00;101429.28;5233707;28;20038;-83
2023/08/14 01:58:19;;;;;;;8.13;4.30;;;;;;;18.23;100.00;101427.34;5233855;28;20029;-74
2023/08/14 02:00:50;;;;;;;8.93;4.57;;;;;;;18.26;100.00;101413.81;5228620;28;20060;-80
2023/08/14 02:03:22;;;;;;;9.53;4.43;;;;;;;18.27;100.00;101418.19;5250924;28;20148;-83
2023/08/14 02:05:53;;;;;;;9.33;4.73;;;;;;;18.28;100.00;101419.84;5254852;28;20039;-83
2023/08/14 02:08:24;;;;;;;12.23;5.33;;;;;;;18.21;100.00;101423.97;5254691;28;20017;-73
2023/08/14 02:10:56;;;;;;;7.83;5.17;;;;;;;18.29;100.00;101416.25;5236803;28;20029;-85
2023/08/14 02:13:27;;;;;;;7.47;5.13;;;;;;;18.23;100.00;101406.13;5254546;28;20056;-85
2023/08/14 02:15:58;;;;;;;7.47;4.33;;;;;;;18.24;100.00;101413.09;5253504;28;20056;-89
2023/08/14 02:18:30;;;;;;;5.77;4.10;;;;;;;18.14;100.00;101408.59;5231729;28;20120;-88
2023/08/14 02:21:01;;;;;;;8.17;3.90;;;;;;;18.04;100.00;101409.44;5213629;28;20026;-84
2023/08/14 02:23:33;;;;;;;7.43;4.20;;;;;;;18.26;100.00;101406.72;5224299;28;20021;-83
2023/08/14 02:26:04;;;;;;;10.57;4.30;;;;;;;18.37;100.00;101410.28;5253414;28;20107;-85
2023/08/14 02:28:35;;;;;;;7.60;3.80;;;;;;;18.43;100.00;101408.94;5254369;28;20606;-74
2023/08/14 02:31:08;;;;;;;9.47;4.67;;;;;;;18.41;100.00;101406.41;5253626;28;20106;-80
2023/08/14 02:33:39;;;;;;;11.03;4.90;;;;;;;18.15;100.00;101404.16;5253896;28;20033;-85
2023/08/14 02:36:11;;;;;;;7.67;4.07;;;;;;;17.96;100.00;101400.31;5253642;28;20033;-82
2023/08/14 02:38:42;;;;;;;6.87;4.90;;;;;;;18.00;100.00;101400.91;5254235;28;20622;-84
2023/08/14 02:41:13;;;;;;;10.63;4.43;;;;;;;18.30;100.00;101396.69;5253531;28;20048;-88
2023/08/14 02:43:45;;;;;;;9.53;4.63;;;;;;;18.17;100.00;101390.75;5235797;28;20044;-89
2023/08/14 02:46:16;;;;;;;11.17;5.07;;;;;;;18.08;100.00;101387.84;5234890;28;20541;-87
2023/08/14 02:48:47;;;;;;;8.23;4.50;;;;;;;17.97;100.00;101393.22;5253886;28;20036;-81
2023/08/14 02:51:18;;;;;;;8.90;4.50;;;;;;;17.80;100.00;101391.97;5245938;28;20424;-82
2023/08/14 02:53:50;;;;;;;8.20;4.20;;;;;;;18.06;100.00;101381.03;5220399;28;20120;-83
2023/08/14 02:56:21;;;;;;;7.60;4.10;;;;;;;17.94;100.00;101386.38;5229384;28;20049;-80
2023/08/14 02:58:52;;;;;;;6.17;4.50;;;;;;;18.06;100.00;101396.91;5212292;28;20038;-85
2023/08/14 03:01:23;;;;;;;8.63;5.37;;;;;;;18.03;100.00;101398.00;5211483;28;20531;-85
2023/08/14 03:03:55;;;;;;;7.13;4.37;;;;;;;17.84;100.00;101391.59;5211404;28;20029;-88
2023/08/14 03:06:29;;;;;;;4.77;3.73;;;;;;;17.89;100.00;101392.03;5213300;28;20042;-86
2023/08/14 03:09:01;;;;;;;8.23;4.60;;;;;;;17.72;100.00;101384.63;5211546;28;20034;-77
2023/08/14 03:11:33;;;;;;;7.40;5.03;;;;;;;17.72;100.00;101376.69;5224724;28;20025;-87
2023/08/14 03:14:04;;;;;;;7.30;4.67;;;;;;;17.65;100.00;101393.09;5216560;28;20124;-81
2023/08/14 03:16:35;;;;;;;10.80;5.33;;;;;;;17.75;100.00;101392.34;5214858;28;20041;-87
2023/08/14 03:19:07;;;;;;;8.93;4.87;;;;;;;18.00;100.00;101392.97;5206877;28;20038;-84
2023/08/14 03:21:38;;;;;;;8.93;5.33;;;;;;;17.80;100.00;101402.56;5212570;28;20045;-80
2023/08/14 03:24:09;;;;;;;8.90;5.47;;;;;;;17.87;100.00;101383.38;5213872;28;20051;-82
2023/08/14 03:26:41;;;;;;;9.20;5.70;;;;;;;17.73;100.00;101391.63;5229325;28;20124;-82
2023/08/14 03:29:12;;;;;;;9.20;5.10;;;;;;;17.72;100.00;101392.59;5212667;28;20030;-84
2023/08/14 03:31:43;;;;;;;8.60;5.07;;;;;;;17.89;100.00;101397.34;5212471;28;20546;-86
2023/08/14 03:34:14;;;;;;;8.20;5.10;;;;;;;17.73;100.00;101389.81;5212354;28;20056;-83
2023/08/14 03:36:46;;;;;;;9.57;5.17;;;;;;;17.72;100.00;101382.84;5213145;28;20033;-88
2023/08/14 03:39:17;;;;;;;9.77;4.17;;;;;;;17.52;100.00;101379.19;5229705;28;20480;-85
2023/08/14 03:41:48;;;;;;;6.50;4.47;;;;;;;17.67;100.00;101390.31;5205627;28;20017;-84
2023/08/14 03:44:20;;;;;;;7.93;4.70;;;;;;;17.51;100.00;101393.38;5230895;28;20076;-80
2023/08/14 03:46:51;;;;;;;9.43;4.80;;;;;;;17.89;100.00;101401.81;5228599;28;20026;-82
2023/08/14 03:49:22;;;;;;;7.97;5.27;;;;;;;17.45;100.00;101396.53;5212023;28;20026;-79
2023/08/14 03:51:54;;;;;;;10.10;5.50;;;;;;;17.55;100.00;101392.16;5216181;28;20026;-86
2023/08/14 03:54:25;;;;;;;12.07;5.83;;;;;;;17.47;100.00;101405.19;5215154;28;20110;-78
2023/08/14 03:56:56;;;;;;;6.37;4.73;;;;;;;17.51;100.00;101396.88;5244670;28;20091;-86
2023/08/14 03:59:28;;;;;;;7.97;5.23;;;;;;;17.46;100.00;101395.56;5252382;28;20104;-83
2023/08/14 04:01:59;;;;;;;11.43;5.73;;;;;;;17.33;100.00;101385.94;5220409;28;20046;-88
2023/08/14 04:04:30;;;;;;;10.17;6.07;;;;;;;17.63;100.00;101388.88;5211500;28;20044;-72
2023/08/14 04:07:01;;;;;;;10.13;5.33;;;;;;;17.48;100.00;101385.69;5218110;28;20037;-82
2023/08/14 04:09:33;;;;;;;8.30;5.10;;;;;;;17.71;100.00;101388.28;5222617;28;20190;-82
2023/08/14 04:12:04;;;;;;;13.10;5.50;;;;;;;17.72;100.00;101388.13;5200873;28;20025;-81
2023/08/14 04:14:36;;;;;;;10.93;4.93;;;;;;;17.64;100.00;101369.41;5233401;28;20033;-80
2023/08/14 04:17:07;;;;;;;8.23;5.13;;;;;;;17.42;100.00;101377.28;5221614;28;20026;-78
2023/08/14 04:19:38;;;;;;;8.73;5.23;;;;;;;17.26;100.00;101375.00;5215773;28;20029;-86
2023/08/14 04:22:10;;;;;;;7.07;5.30;;;;;;;17.39;100.00;101371.38;5214663;28;20026;-87
2023/08/14 04:24:41;;;;;;;10.30;5.27;;;;;;;17.32;100.00;101363.09;5214980;28;20037;-88
2023/08/14 04:27:12;;;;;;;7.90;5.37;;;;;;;17.31;100.00;101365.88;5225317;28;20021;-82
2023/08/14 04:29:44;;;;;;;10.57;5.30;;;;;;;17.23;100.00;101364.69;5234858;28;20021;-88
2023/08/14 04:32:15;;;;;;;9.93;5.70;;;;;;;17.33;100.00;101364.78;5235611;28;20755;-88
2023/08/14 04:34:46;;;;;;;8.90;5.23;;;;;;;17.30;100.00;101367.66;5217718;28;20022;-84
2023/08/14 04:37:17;;;;;;;10.23;5.63;;;;;;;17.32;100.00;101352.50;5235641;28;20026;-73
2023/08/14 04:39:49;;;;;;;11.50;5.67;;;;;;;17.29;100.00;101358.91;5217329;28;20038;-82
2023/08/14 04:42:20;;;;;;;9.60;6.03;;;;;;;17.39;100.00;101361.66;5235699;28;20834;-84
2023/08/14 04:44:51;;;;;;;9.93;6.13;;;;;;;17.30;100.00;101357.09;5234842;28;20036;-87
2023/08/14 04:47:23;;;;;;;7.60;5.50;;;;;;;17.30;100.00;101354.44;5217075;28;20648;-86
2023/08/14 04:49:54;;;;;;;9.43;4.97;;;;;;;17.28;100.00;101349.28;5230890;28;20491;-86
2023/08/14 04:52:26;;;;;;;8.57;5.63;;;;;;;17.22;100.00;101344.47;5249225;28;20017;-85
2023/08/14 04:54:57;;;;;;;11.43;5.77;;;;;;;17.27;100.00;101346.75;5255303;28;20025;-83
2023/08/14 04:57:28;;;;;;;8.80;5.93;;;;;;;17.39;100.00;101345.75;5233633;28;20029;-87
2023/08/14 05:00:00;;;;;;;11.60;4.57;;;;;;;17.50;100.00;101339.59;5253487;28;20025;-84
2023/08/14 05:02:31;;;;;;;8.93;5.40;;;;;;;17.54;100.00;101326.94;5253634;28;20049;-82
2023/08/14 05:05:03;;;;;;;8.97;5.80;;;;;;;17.41;100.00;101322.66;5207889;28;20030;-81
2023/08/14 05:07:34;;;;;;;7.87;5.43;;;;;;;17.42;100.00;101329.63;5227387;28;20072;-82
2023/08/14 05:10:06;;;;;;;7.20;5.23;;;;;;;17.57;100.00;101333.78;5219621;28;20029;-83
2023/08/14 05:12:37;;;;;;;10.80;5.00;;;;;;;17.62;100.00;101328.94;5231449;28;20122;-83
2023/08/14 05:15:09;;;;;;;7.23;5.00;;;;;;;17.57;100.00;101326.69;5252428;28;20040;-78
2023/08/14 05:17:40;;;;;;;14.13;6.37;;;;;;;17.63;100.00;101317.38;5254181;28;20021;-86
2023/08/14 05:20:12;;;;;;;6.53;5.20;;;;;;;17.71;100.00;101322.06;5253340;28;20028;-85
2023/08/14 05:22:43;;;;;;;7.30;5.23;;;;;;;17.63;100.00;101326.16;5253396;28;20025;-74
2023/08/14 05:25:15;;;;;;;6.67;4.93;;;;;;;17.85;100.00;101327.06;5243248;28;20033;-79
2023/08/14 05:27:46;;;;;;;9.13;6.10;;;;;;;17.91;100.00;101323.03;5224799;28;20112;-77
2023/08/14 05:30:17;;;;;;;10.17;6.13;;;;;;;18.00;100.00;101324.91;5250962;28;20040;-82
2023/08/14 05:32:49;;;;;;;12.33;6.67;;;;;;;18.02;100.00;101330.94;5241177;28;20055;-84
2023/08/14 05:35:23;;;;;;;9.27;5.83;;;;;;;18.21;100.00;101333.84;5253103;28;20269;-85
2023/08/14 05:37:56;;;;;;;;;;;;;;;18.64;100.00;101333.78;5254084;28;20354;-85
2023/08/14 05:40:28;;;;;;;13.83;6.07;;;;;;;18.13;100.00;101343.28;5253160;28;20009;-83
2023/08/14 05:43:10;;;;;;;8.40;5.53;;;;;;;18.30;100.00;101343.69;5251969;28;20108;-82
2023/08/14 05:45:44;;;;;;;9.30;6.00;;;;;;;18.28;100.00;101352.72;5240824;28;20041;-78
2023/08/14 05:48:15;;;;;;;9.13;5.75;;;;;;;18.18;100.00;101347.38;5253023;28;20029;-73
2023/08/14 05:50:50;;;;;;;12.73;6.57;;;;;;;18.32;100.00;101352.34;5247751;28;20087;-83
2023/08/14 05:53:22;;;;;;;11.10;6.60;;;;;;;18.38;100.00;101350.97;5253232;28;20291;-79
2023/08/14 05:55:53;;;;;;;9.10;6.60;;;;;;;18.41;100.00;101353.38;5227854;28;20017;-82
2023/08/14 05:58:25;;;;;;;7.60;6.70;;;;;;;18.40;100.00;101359.63;5216956;28;20029;-82
2023/08/14 06:00:56;;;;;;;11.20;7.10;;;;;;;18.47;100.00;101360.78;5208183;28;20504;-78
2023/08/14 06:03:27;;;;;;;7.57;5.93;;;;;;;18.50;100.00;101362.34;5252157;28;20138;-80
2023/08/14 06:05:58;;;;;;;11.27;6.87;;;;;;;18.48;100.00;101361.63;5234872;28;20025;-77
2023/08/14 06:08:30;;;;;;;12.27;7.57;;;;;;;18.34;100.00;101371.63;5252707;28;20029;-79
2023/08/14 06:11:02;;;;;;;13.03;6.87;;;;;;;18.44;100.00;101374.31;5252230;28;20017;-78
2023/08/14 06:13:34;;;;;;;10.10;5.90;;;;;;;18.53;100.00;101383.31;5253115;28;20037;-79
2023/08/14 06:16:05;;;;;;;8.90;6.77;;;;;;;18.48;100.00;101377.56;5233712;28;20033;-81
2023/08/14 06:18:36;;;;;;;14.70;7.10;;;;;;;18.51;100.00;101369.31;5252010;28;20056;-73
2023/08/14 06:21:08;;;;;;;19.00;7.77;;;;;;;18.63;100.00;101370.06;5251969;28;20025;-82
2023/08/14 06:23:39;;;;;;;14.90;8.33;;;;;;;18.62;100.00;101361.28;5222895;28;20069;-82
2023/08/14 06:26:11;;;;;;;18.93;7.63;;;;;;;18.56;100.00;101348.56;5246852;28;20495;-89
2023/08/14 06:28:42;;;;;;;11.87;6.80;;;;;;;18.60;100.00;101349.97;5252137;28;20033;-77
2023/08/14 06:31:13;;;;;;;10.30;6.97;;;;;;;18.67;100.00;101354.75;5252096;28;20029;-78
2023/08/14 06:33:46;;;;;;;10.47;6.87;;;;;;;18.66;100.00;101347.78;5234676;28;20040;-78
2023/08/14 06:36:18;;;;;;;9.80;6.57;;;;;;;18.69;100.00;101352.81;5224579;28;20770;-80
2023/08/14 06:38:49;;;;;;;11.77;6.63;;;;;;;18.82;100.00;101352.56;5229280;28;20029;-79
2023/08/14 06:41:20;;;;;;;11.13;6.80;;;;;;;18.98;100.00;101352.06;5219386;28;20491;-79
2023/08/14 06:43:51;;;;;;;11.00;5.87;;;;;;;19.03;100.00;101349.84;5219385;28;20049;-79
2023/08/14 06:46:23;;;;;;;12.27;7.13;;;;;;;19.17;100.00;101345.13;5210473;28;20151;-81
2023/08/14 06:48:54;;;;;;;11.07;5.63;;;;;;;19.28;100.00;101342.38;5207139;28;20076;-80
2023/08/14 06:51:25;;;;;;;11.77;5.73;;;;;;;19.30;100.00;101351.06;5211231;28;20053;-80
2023/08/14 06:53:57;;;;;;;13.47;5.77;;;;;;;19.35;100.00;101350.63;5203823;28;20045;-77
2023/08/14 06:56:29;;;;;;;15.07;6.53;;;;;;;19.44;100.00;101346.31;5224250;28;20092;-80
2023/08/14 06:59:00;;;;;;;9.00;5.80;;;;;;;19.61;100.00;101346.59;5199684;28;20067;-76
2023/08/14 07:01:32;;;;;;;15.20;5.93;;;;;;;19.66;100.00;101339.88;5222297;28;20116;-80
2023/08/14 07:04:04;;;;;;;11.70;5.30;;;;;;;19.83;100.00;101348.97;5221238;28;20745;-79
2023/08/14 07:06:35;;;;;;;13.77;5.63;;;;;;;19.99;100.00;101342.22;5221730;28;20621;-82
2023/08/14 07:09:06;;;;;;;8.10;5.53;;;;;;;20.19;100.00;101342.22;5225997;28;20029;-81
2023/08/14 07:11:38;;;;;;;10.43;5.23;;;;;;;20.31;100.00;101338.44;5203395;28;20519;-78
2023/08/14 07:14:09;;;;;;;11.30;4.00;;;;;;;20.33;100.00;101356.91;5222950;28;20029;-79
2023/08/14 07:16:41;;;;;;;9.40;4.37;;;;;;;20.33;100.00;101354.25;5216628;28;20560;-80
2023/08/14 07:19:12;;;;;;;12.60;4.47;;;;;;;20.34;100.00;101341.75;5222021;28;20021;-79
2023/08/14 07:21:44;;;;;;;7.73;3.60;;;;;;;20.32;100.00;101336.59;5225618;28;20041;-75
2023/08/14 07:24:15;;;;;;;12.17;3.93;;;;;;;20.38;100.00;101343.16;5222219;28;20033;-80
2023/08/14 07:26:47;;;;;;;7.47;3.27;;;;;;;20.38;100.00;101333.38;5226774;28;20034;-77
2023/08/14 07:29:18;;;;;;;8.70;3.67;;;;;;;20.64;100.00;101353.16;5220288;28;21944;-74
2023/08/14 07:31:50;;;;;;;7.30;3.57;;;;;;;20.79;100.00;101356.16;5207717;28;20263;-80
2023/08/14 07:34:21;;;;;;;10.67;4.50;;;;;;;20.87;100.00;101368.75;5226202;28;20349;-81
2023/08/14 07:36:52;;;;;;;11.10;3.37;;;;;;;20.78;100.00;101354.47;5200821;28;20053;-80
2023/08/14 07:39:24;;;;;;;8.10;3.47;;;;;;;21.18;100.00;101365.78;5210858;28;20521;-81
2023/08/14 07:41:55;;;;;;;8.80;3.27;;;;;;;21.52;100.00;101373.13;5211770;28;20058;-78
2023/08/14 07:44:27;;;;;;;14.30;4.53;;;;;;;21.81;100.00;101371.25;5203447;28;20420;-79
2023/08/14 07:46:58;;;;;;;12.02;3.65;;;;;;;22.71;100.00;101372.00;5199774;28;20030;-80
2023/08/14 07:49:33;;;;;;;7.88;2.85;;;;;;;23.45;100.00;101361.72;5215473;28;20053;-79
2023/08/14 07:52:05;;;;;;;9.43;4.18;;;;;;;23.84;100.00;101364.75;5218744;28;20029;-77
2023/08/14 07:54:36;;;;;;;7.97;3.13;;;;;;;24.76;100.00;101360.88;5216659;28;20033;-79
2023/08/14 07:57:08;;;;;;;8.38;3.42;;;;;;;24.91;100.00;101368.16;5219383;28;20037;-75
2023/08/14 07:59:39;;;;;;;8.50;3.03;;;;;;;25.72;100.00;101367.03;5216486;28;20026;-76
2023/08/14 08:02:10;;;;;;;7.50;2.50;;;;;;;26.25;92.73;101351.91;5223726;28;20092;-78
2023/08/14 08:04:42;;;;;;;6.43;2.90;;;;;;;26.41;83.98;101369.75;5224702;28;20030;-78
2023/08/14 08:07:13;;;;;;;6.85;2.92;;;;;;;27.04;79.44;101373.00;5214191;28;20515;-75
2023/08/14 08:09:45;;;;;;;7.63;2.28;;;;;;;27.37;81.07;101371.72;5216048;28;20459;-78
2023/08/14 08:12:16;;;;;;;6.65;2.72;;;;;;;28.05;71.06;101372.31;5235303;28;20018;-78
2023/08/14 08:14:47;;;;;;;7.53;3.25;;;;;;;28.74;66.77;101365.25;5231122;28;20025;-78
2023/08/14 08:17:19;;;;;;;7.95;3.47;;;;;;;29.11;67.85;101358.72;5215315;28;20033;-79
2023/08/14 08:19:51;;;;;;;7.70;2.70;;;;;;;29.43;58.46;101361.66;5201489;28;20025;-80
2023/08/14 08:22:22;;;;;;;10.55;2.25;;;;;;;29.85;56.61;101349.84;5225252;28;20037;-79
2023/08/14 08:24:54;;;;;;;8.57;2.97;;;;;;;30.10;56.37;101365.41;5218539;28;20049;-78
2023/08/14 08:27:25;;;;;;;6.32;2.10;;;;;;;30.08;54.95;101367.47;5228991;28;20030;-76
2023/08/14 08:29:57;;;;;;;6.63;1.98;;;;;;;30.88;51.51;101341.25;5213489;28;20029;-79
2023/08/14 08:32:28;;;;;;;6.55;1.98;;;;;;;30.79;49.49;101350.66;5214854;28;20032;-77
2023/08/14 08:34:59;;;;;;;4.90;1.90;;;;;;;31.38;51.25;101347.75;5225356;28;20041;-76
2023/08/14 08:37:31;;;;;;;6.55;1.80;;;;;;;31.99;46.42;101346.47;5223835;28;20045;-75
2023/08/14 08:40:04;;;;;;;9.82;2.08;;;;;;;31.95;43.84;101346.06;5228190;28;20068;-75
2023/08/14 08:42:37;;;;;;;4.20;1.67;;;;;;;31.56;45.50;101338.06;5234584;28;20936;-75
2023/08/14 08:45:09;;;;;;;5.80;1.55;;;;;;;32.35;39.67;101349.38;5232189;28;20037;-72
2023/08/14 08:47:44;;;;;;;6.75;2.10;;;;;;;32.47;39.46;101352.16;5222820;28;20072;-72
2023/08/14 08:50:15;;;;;;;5.75;2.05;;;;;;;33.15;40.78;101348.56;5214107;28;20085;-75
2023/08/14 08:52:47;;;;;;;4.45;1.95;;;;;;;33.48;36.49;101349.91;5215396;28;20026;-75
2023/08/14 08:55:19;;;;;;;5.18;1.88;;;;;;;33.66;35.89;101340.03;5213291;28;20030;-75
2023/08/14 08:57:53;;;;;;;5.85;1.95;;;;;;;34.00;36.53;101337.50;5214118;28;20018;-76
2023/08/14 09:00:24;;;;;;;4.47;1.90;;;;;;;33.14;35.18;101339.63;5224885;28;20840;-75
2023/08/14 09:02:56;;;;;;;7.30;2.35;;;;;;;34.35;34.35;101340.44;5213712;28;20091;-77
2023/08/14 09:05:30;;;;;;;5.65;2.22;;;;;;;34.78;33.01;101337.44;5234634;28;20037;-75
2023/08/14 09:08:02;;;;;;;5.80;2.10;;;;;;;35.02;34.05;101331.84;5231266;28;20037;-79
2023/08/14 09:10:33;;;;;;;5.45;2.20;;;;;;;34.41;32.56;101331.31;5219157;28;20034;-77
2023/08/14 09:13:05;;;;;;;5.05;1.92;;;;;;;33.77;34.68;101331.06;5230630;28;20036;-75
2023/08/14 09:15:44;;;;;;;4.28;1.70;;;;;;;33.66;35.98;101332.72;5214980;28;20108;-79
2023/08/14 09:18:15;;;;;;;6.82;2.15;;;;;;;32.68;35.13;101331.91;5232877;28;20029;-73
2023/08/14 09:20:46;;;;;;;6.05;1.77;;;;;;;31.94;37.48;101333.53;5221031;28;20029;-73
2023/08/14 09:23:18;;;;;;;10.20;2.78;;;;;;;31.67;39.42;101327.56;5220786;28;20032;-75
2023/08/14 09:25:52;;;;;;;11.18;2.75;;;;;;;31.36;37.02;101330.09;5215224;28;20017;-78
2023/08/14 09:28:25;;;;;;;4.40;1.98;;;;;;;31.23;39.42;101336.44;5212199;28;20037;-80
2023/08/14 09:31:07;;;;;;;5.53;1.83;;;;;;;31.18;40.02;101341.69;5217096;28;20034;-79
2023/08/14 09:33:40;;;;;;;3.60;1.73;;;;;;;30.72;38.81;101339.03;5226396;28;20163;-79
2023/08/14 09:36:15;;;;;;;5.28;2.20;;;;;;;30.61;39.86;101349.47;5195536;28;20061;-80
2023/08/14 09:38:50;;;;;;;6.35;1.75;;;;;;;30.98;38.19;101351.56;5216170;28;20519;-79
2023/08/14 09:41:24;;;;;;;3.75;1.73;;;;;;;30.36;42.89;101352.91;5212420;28;20061;-77
2023/08/14 09:44:00;;;;;;;4.90;1.63;;;;;;;30.24;43.47;101352.72;5212289;28;20034;-76
2023/08/14 09:46:31;;;;;;;6.55;2.45;;;;;;;30.12;41.95;101344.41;5218567;28;20038;-79
2023/08/14 09:49:04;;;;;;;8.20;1.90;;;;;;;30.47;39.77;101345.16;5202318;28;20022;-80
2023/08/14 09:51:36;;;;;;;7.53;3.00;;;;;;;30.29;40.96;101344.81;5213305;28;20112;-79
2023/08/14 09:54:08;;;;;;;7.55;1.98;;;;;;;29.92;41.70;101347.13;5212861;28;20113;-79
2023/08/14 09:56:39;;;;;;;4.20;1.90;;;;;;;29.84;40.45;101337.41;5224644;28;20030;-78
2023/08/14 09:59:10;;;;;;;4.32;1.83;;;;;;;29.61;44.20;101329.72;5223724;28;20037;-76
2023/08/14 10:01:42;;;;;;;5.43;1.70;;;;;;;29.61;42.30;101332.44;5220022;28;20641;-78
2023/08/14 10:04:14;;;;;;;5.20;1.65;;;;;;;29.89;41.15;101318.72;5194056;28;20038;-79
2023/08/14 10:06:45;;;;;;;6.35;2.13;;;;;;;29.83;43.45;101323.06;5212623;28;20457;-74
2023/08/14 10:09:21;;;;;;;5.40;2.38;;;;;;;29.57;41.76;101321.19;5211792;28;20466;-72
2023/08/14 10:11:56;;;;;;;5.07;1.88;;;;;;;29.97;40.46;101312.25;5196734;28;20029;-74
2023/08/14 10:14:28;;;;;;;3.60;1.38;;;;;;;29.80;41.07;101301.06;5231437;28;20472;-79
2023/08/14 10:17:00;;;;;;;4.93;1.83;;;;;;;29.79;40.39;101304.81;5233029;28;20111;-77
2023/08/14 10:19:33;;;;;;;4.40;1.73;;;;;;;29.87;41.45;101295.66;5227084;28;20083;-74
2023/08/14 10:22:06;;;;;;;5.63;2.33;;;;;;;29.69;40.51;101281.78;5230748;28;20284;-77
2023/08/14 10:24:38;;;;;;;4.82;1.48;;;;;;;29.53;41.40;101274.09;5231299;28;20112;-79
2023/08/14 10:27:09;;;;;;;4.63;1.58;;;;;;;29.84;40.20;101278.03;5213589;28;20025;-75
2023/08/14 10:29:41;;;;;;;6.30;2.10;;;;;;;29.70;39.03;101279.91;5220368;28;20029;-75
2023/08/14 10:32:14;;;;;;;4.30;1.90;;;;;;;29.56;39.26;101270.97;5211611;28;20040;-76
2023/08/14 10:34:47;;;;;;;4.90;2.00;;;;;;;29.79;41.02;101267.03;5226142;28;20026;-78
2023/08/14 10:37:40;;;;;;;6.80;1.77;;;;;;;30.12;39.77;101263.41;5232615;28;20025;-78
2023/08/14 10:40:19;;;;;;;7.93;2.00;;;;;;;30.10;40.48;101260.09;5224216;28;20042;-79
2023/08/14 10:42:54;;;;;;;5.53;2.50;;;;;;;30.08;41.52;101264.84;5212158;28;20033;-76
2023/08/14 10:45:27;;;;;;;5.45;1.75;;;;;;;30.21;38.83;101269.41;5210308;28;20120;-78
2023/08/14 10:48:07;;;;;;;5.40;1.80;;;;;;;30.51;39.16;101265.34;5210524;28;20085;-75
2023/08/14 10:50:38;;;;;;;5.75;2.08;;;;;;;30.80;37.51;101257.69;5211268;28;20025;-78
2023/08/14 10:53:10;;;;;;;4.35;1.60;;;;;;;31.01;35.92;101266.50;5210533;28;20029;-76
2023/08/14 10:55:45;;;;;;;5.88;1.85;;;;;;;31.17;37.15;101267.00;5210982;28;20486;-77
2023/08/14 10:58:29;;;;;;;5.68;2.00;;;;;;;31.49;36.56;101275.06;5191675;28;20030;-75
2023/08/14 11:01:03;;;;;;;3.78;1.67;;;;;;;31.41;37.05;101272.66;5193049;28;20026;-76
2023/08/14 11:03:54;;;;;;;5.30;2.00;;;;;;;31.96;37.28;101271.06;5211680;28;20099;-77
2023/08/14 11:06:29;;;;;;;5.40;1.98;;;;;;;31.27;38.75;101267.31;5193454;28;20488;-78
2023/08/14 11:09:04;;;;;;;6.05;2.42;;;;;;;31.67;38.25;101273.44;5210529;28;20053;-77
2023/08/14 11:11:42;;;;;;;8.07;2.95;;;;;;;32.02;34.80;101275.59;5211401;28;20029;-77
2023/08/14 11:14:13;;;;;;;4.07;2.08;;;;;;;31.95;35.48;101280.22;5192808;28;20385;-79
2023/08/14 11:16:49;;;;;;;7.97;2.35;;;;;;;32.10;36.22;101280.69;5211729;28;20029;-76
2023/08/14 11:19:20;;;;;;;8.38;2.00;;;;;;;31.72;37.09;101262.75;5211581;28;20053;-78
2023/08/14 11:21:51;;;;;;;5.22;1.63;;;;;;;31.99;37.52;101281.47;5210988;28;20121;-78
2023/08/14 11:24:23;;;;;;;6.93;1.92;;;;;;;31.66;36.58;101267.22;5211345;28;20120;-75
2023/08/14 11:26:58;;;;;;;5.15;1.75;;;;;;;31.37;38.37;101270.34;5221259;28;20021;-78
2023/08/14 11:29:29;;;;;;;5.13;2.25;;;;;;;31.86;35.41;101261.56;5217734;28;20025;-79
2023/08/14 11:32:01;;;;;;;4.18;1.92;;;;;;;31.18;36.76;101265.94;5235483;28;20103;-80
2023/08/14 11:34:34;;;;;;;6.90;1.90;;;;;;;31.82;35.64;101259.56;5236423;28;20033;-78
2023/08/14 11:37:07;;;;;;;7.15;2.15;;;;;;;31.64;36.24;101261.19;5235644;28;20032;-78
2023/08/14 11:39:38;;;;;;;4.85;1.50;;;;;;;32.14;35.92;101242.31;5236254;28;20074;-78
2023/08/14 11:42:10;;;;;;;3.92;1.60;;;;;;;31.42;39.30;101260.78;5235753;28;20060;-77